JST500 YMML-YSSY
Flight info
| Callsign | JST500 |
|---|---|
| Flight time | 1h 7m |
| Altitude | 37000 |
| Route | ML H129 DOSEL Y59 RIVET |
| Aircraft | A321/M-SDE3FGHIRWY/LB1 |
Departure
| Time | 2026-04-23 11:21 |
|---|---|
| Airport | Melbourne Airport (YMML) |
Arrival
| Time | 2026-04-23 12:28 |
|---|---|
| Airport | Sydney Kingsford Smith International Airport (YSSY) |
| Time | Latitude | Longitude | Altitude | Speed | Heading |
|---|---|---|---|---|---|
| 2026-04-23 11:00 | -37.67343 | 144.84790 | 353 ft | 0 kts | 24° |
| 2026-04-23 11:13 | -37.67365 | 144.84778 | 362 ft | 4 kts | 21° |
| 2026-04-23 11:14 | -37.67390 | 144.84768 | 360 ft | 4 kts | 4° |
| 2026-04-23 11:14 | -37.67408 | 144.84769 | 362 ft | 4 kts | 284° |
| 2026-04-23 11:14 | -37.67410 | 144.84769 | 362 ft | 4 kts | 260° |
| 2026-04-23 11:14 | -37.67415 | 144.84735 | 355 ft | 4 kts | 260° |
| 2026-04-23 11:15 | -37.67419 | 144.84702 | 356 ft | 4 kts | 261° |
| 2026-04-23 11:15 | -37.67423 | 144.84668 | 354 ft | 4 kts | 262° |
| 2026-04-23 11:15 | -37.67426 | 144.84635 | 363 ft | 3 kts | 263° |
| 2026-04-23 11:15 | -37.67426 | 144.84631 | 362 ft | 0 kts | 263° |
| 2026-04-23 11:17 | -37.67426 | 144.84630 | 362 ft | 0 kts | 263° |
| 2026-04-23 11:17 | -37.67428 | 144.84618 | 361 ft | 3 kts | 259° |
| 2026-04-23 11:17 | -37.67437 | 144.84571 | 357 ft | 8 kts | 251° |
| 2026-04-23 11:18 | -37.67464 | 144.84488 | 358 ft | 13 kts | 261° |
| 2026-04-23 11:18 | -37.67479 | 144.84360 | 362 ft | 11 kts | 261° |
| 2026-04-23 11:18 | -37.67534 | 144.84333 | 359 ft | 12 kts | 175° |
| 2026-04-23 11:18 | -37.67634 | 144.84351 | 358 ft | 17 kts | 171° |
| 2026-04-23 11:19 | -37.67761 | 144.84375 | 358 ft | 21 kts | 171° |
| 2026-04-23 11:19 | -37.67845 | 144.84343 | 359 ft | 11 kts | 256° |
| 2026-04-23 11:19 | -37.67857 | 144.84242 | 355 ft | 13 kts | 262° |
| 2026-04-23 11:19 | -37.67871 | 144.84126 | 358 ft | 14 kts | 261° |
| 2026-04-23 11:20 | -37.67880 | 144.84049 | 354 ft | 9 kts | 261° |
| 2026-04-23 11:20 | -37.67862 | 144.83979 | 356 ft | 9 kts | 324° |
| 2026-04-23 11:20 | -37.67782 | 144.83950 | 358 ft | 20 kts | 349° |
| 2026-04-23 11:20 | -37.67395 | 144.83879 | 368 ft | 91 kts | 352° |
| 2026-04-23 11:21 | -37.66558 | 144.83724 | 396 ft | 149 kts | 352° |
| 2026-04-23 11:21 | -37.65470 | 144.83512 | 907 ft | 158 kts | 351° |
| 2026-04-23 11:21 | -37.64399 | 144.83304 | 1673 ft | 155 kts | 352° |
| 2026-04-23 11:21 | -37.63324 | 144.83095 | 2325 ft | 161 kts | 353° |
| 2026-04-23 11:22 | -37.62151 | 144.82872 | 2616 ft | 182 kts | 352° |
| 2026-04-23 11:22 | -37.60821 | 144.82620 | 2902 ft | 204 kts | 353° |
| 2026-04-23 11:22 | -37.59330 | 144.82447 | 3140 ft | 228 kts | 7° |
| 2026-04-23 11:22 | -37.57759 | 144.83074 | 3473 ft | 249 kts | 26° |
| 2026-04-23 11:23 | -37.56168 | 144.84047 | 4108 ft | 258 kts | 26° |
| 2026-04-23 11:23 | -37.54547 | 144.85044 | 4947 ft | 260 kts | 26° |
| 2026-04-23 11:23 | -37.52918 | 144.86044 | 5819 ft | 261 kts | 26° |
| 2026-04-23 11:23 | -37.51274 | 144.87048 | 6573 ft | 266 kts | 26° |
| 2026-04-23 11:24 | -37.49586 | 144.88075 | 7270 ft | 271 kts | 26° |
| 2026-04-23 11:24 | -37.47876 | 144.89111 | 7993 ft | 274 kts | 26° |
| 2026-04-23 11:24 | -37.46147 | 144.90160 | 8738 ft | 278 kts | 26° |
| 2026-04-23 11:24 | -37.44456 | 144.91293 | 9454 ft | 281 kts | 34° |
| 2026-04-23 11:25 | -37.42981 | 144.92932 | 10194 ft | 286 kts | 49° |
| 2026-04-23 11:25 | -37.41774 | 144.94985 | 10620 ft | 302 kts | 54° |
| 2026-04-23 11:25 | -37.40517 | 144.97219 | 10790 ft | 324 kts | 54° |
| 2026-04-23 11:25 | -37.39183 | 144.99595 | 11186 ft | 337 kts | 54° |
| 2026-04-23 11:26 | -37.37817 | 145.02030 | 11768 ft | 343 kts | 54° |
| 2026-04-23 11:26 | -37.36433 | 145.04493 | 12413 ft | 347 kts | 54° |
| 2026-04-23 11:26 | -37.35028 | 145.06980 | 13072 ft | 351 kts | 54° |
| 2026-04-23 11:26 | -37.33603 | 145.09495 | 13713 ft | 355 kts | 55° |
| 2026-04-23 11:27 | -37.32180 | 145.12003 | 14341 ft | 359 kts | 55° |
| 2026-04-23 11:27 | -37.30722 | 145.14571 | 14918 ft | 363 kts | 55° |
| 2026-04-23 11:27 | -37.29247 | 145.17167 | 15506 ft | 366 kts | 55° |
| 2026-04-23 11:27 | -37.27760 | 145.19781 | 16096 ft | 370 kts | 55° |
| 2026-04-23 11:28 | -37.26260 | 145.22425 | 16688 ft | 373 kts | 55° |
| 2026-04-23 11:28 | -37.24745 | 145.25097 | 17282 ft | 377 kts | 55° |
| 2026-04-23 11:28 | -37.23215 | 145.27788 | 17862 ft | 381 kts | 55° |
| 2026-04-23 11:28 | -37.21668 | 145.30506 | 18435 ft | 385 kts | 55° |
| 2026-04-23 11:29 | -37.20098 | 145.33252 | 18959 ft | 388 kts | 55° |
| 2026-04-23 11:29 | -37.18519 | 145.36011 | 19470 ft | 391 kts | 55° |
| 2026-04-23 11:29 | -37.16948 | 145.38757 | 19977 ft | 394 kts | 55° |
| 2026-04-23 11:29 | -37.15345 | 145.41560 | 20494 ft | 397 kts | 56° |
| 2026-04-23 11:30 | -37.13727 | 145.44390 | 21011 ft | 401 kts | 56° |
| 2026-04-23 11:30 | -37.12096 | 145.47234 | 21533 ft | 404 kts | 56° |
| 2026-04-23 11:30 | -37.10448 | 145.50103 | 22041 ft | 407 kts | 56° |
| 2026-04-23 11:30 | -37.08786 | 145.52990 | 22561 ft | 410 kts | 56° |
| 2026-04-23 11:31 | -37.07109 | 145.55901 | 23070 ft | 414 kts | 56° |
| 2026-04-23 11:31 | -37.05418 | 145.58836 | 23559 ft | 417 kts | 56° |
| 2026-04-23 11:31 | -37.03719 | 145.61790 | 24022 ft | 420 kts | 56° |
| 2026-04-23 11:31 | -37.02006 | 145.64769 | 24408 ft | 423 kts | 56° |
| 2026-04-23 11:32 | -37.00283 | 145.67760 | 24797 ft | 425 kts | 56° |
| 2026-04-23 11:32 | -36.98545 | 145.70773 | 25179 ft | 428 kts | 56° |
| 2026-04-23 11:32 | -36.96796 | 145.73805 | 25552 ft | 431 kts | 57° |
| 2026-04-23 11:32 | -36.95037 | 145.76853 | 25918 ft | 434 kts | 57° |
| 2026-04-23 11:33 | -36.93265 | 145.79920 | 26301 ft | 436 kts | 57° |
| 2026-04-23 11:33 | -36.91483 | 145.82996 | 26673 ft | 439 kts | 57° |
| 2026-04-23 11:33 | -36.89686 | 145.86097 | 27026 ft | 442 kts | 57° |
| 2026-04-23 11:33 | -36.87879 | 145.89212 | 27375 ft | 444 kts | 57° |
| 2026-04-23 11:34 | -36.86059 | 145.92345 | 27726 ft | 447 kts | 57° |
| 2026-04-23 11:34 | -36.80518 | 146.01849 | 28737 ft | 455 kts | 57° |
| 2026-04-23 11:35 | -36.78647 | 146.05050 | 29068 ft | 458 kts | 57° |
| 2026-04-23 11:35 | -36.76771 | 146.08266 | 29410 ft | 460 kts | 57° |
| 2026-04-23 11:35 | -36.74880 | 146.11500 | 29729 ft | 463 kts | 57° |
| 2026-04-23 11:35 | -36.72980 | 146.14746 | 30036 ft | 465 kts | 57° |
| 2026-04-23 11:36 | -36.71069 | 146.18016 | 30344 ft | 467 kts | 58° |
| 2026-04-23 11:36 | -36.69147 | 146.21303 | 30619 ft | 470 kts | 58° |
| 2026-04-23 11:36 | -36.67218 | 146.24599 | 30882 ft | 472 kts | 58° |
| 2026-04-23 11:36 | -36.65277 | 146.27914 | 31162 ft | 474 kts | 58° |
| 2026-04-23 11:37 | -36.63326 | 146.31237 | 31456 ft | 476 kts | 58° |
| 2026-04-23 11:37 | -36.61368 | 146.34565 | 31803 ft | 476 kts | 58° |
| 2026-04-23 11:37 | -36.59411 | 146.37887 | 32192 ft | 475 kts | 58° |
| 2026-04-23 11:37 | -36.57456 | 146.41199 | 32577 ft | 474 kts | 58° |
| 2026-04-23 11:38 | -36.55504 | 146.44500 | 32946 ft | 474 kts | 58° |
| 2026-04-23 11:38 | -36.53553 | 146.47802 | 33311 ft | 473 kts | 58° |
| 2026-04-23 11:38 | -36.51494 | 146.51285 | 33688 ft | 472 kts | 59° |
| 2026-04-23 11:38 | -36.49476 | 146.54699 | 34065 ft | 472 kts | 59° |
| 2026-04-23 11:39 | -36.47538 | 146.57980 | 34422 ft | 471 kts | 59° |
| 2026-04-23 11:39 | -36.45597 | 146.61261 | 34727 ft | 471 kts | 59° |
| 2026-04-23 11:39 | -36.43650 | 146.64541 | 35023 ft | 471 kts | 59° |
| 2026-04-23 11:39 | -36.41704 | 146.67813 | 35316 ft | 471 kts | 59° |
| 2026-04-23 11:40 | -36.39760 | 146.71078 | 35607 ft | 470 kts | 59° |
| 2026-04-23 11:40 | -36.37816 | 146.74339 | 35886 ft | 470 kts | 59° |
| 2026-04-23 11:40 | -36.35866 | 146.77604 | 36167 ft | 470 kts | 59° |
| 2026-04-23 11:40 | -36.33920 | 146.80860 | 36444 ft | 470 kts | 59° |
| 2026-04-23 11:41 | -36.31977 | 146.84114 | 36712 ft | 470 kts | 59° |
| 2026-04-23 11:41 | -36.30033 | 146.87370 | 36999 ft | 469 kts | 59° |
| 2026-04-23 11:41 | -36.28090 | 146.90624 | 37277 ft | 469 kts | 59° |
| 2026-04-23 11:41 | -36.26146 | 146.93876 | 37422 ft | 470 kts | 59° |
| 2026-04-23 11:42 | -36.24202 | 146.97124 | 37452 ft | 469 kts | 59° |
| 2026-04-23 11:42 | -36.20313 | 147.03609 | 37448 ft | 469 kts | 59° |
| 2026-04-23 11:43 | -36.16418 | 147.10078 | 37454 ft | 469 kts | 59° |
| 2026-04-23 11:43 | -36.12519 | 147.16545 | 37456 ft | 468 kts | 59° |
| 2026-04-23 11:44 | -36.08620 | 147.23006 | 37460 ft | 469 kts | 59° |
| 2026-04-23 11:44 | -36.04717 | 147.29475 | 37465 ft | 469 kts | 59° |
| 2026-04-23 11:45 | -36.00809 | 147.35939 | 37466 ft | 470 kts | 59° |
| 2026-04-23 11:45 | -35.96887 | 147.42396 | 37488 ft | 470 kts | 59° |
| 2026-04-23 11:46 | -35.92983 | 147.48803 | 37485 ft | 470 kts | 59° |
| 2026-04-23 11:46 | -35.89055 | 147.55251 | 37487 ft | 470 kts | 59° |
| 2026-04-23 11:47 | -35.85131 | 147.61692 | 37492 ft | 470 kts | 59° |
| 2026-04-23 11:47 | -35.81197 | 147.68125 | 37508 ft | 470 kts | 59° |
| 2026-04-23 11:48 | -35.77260 | 147.74545 | 37507 ft | 469 kts | 59° |
| 2026-04-23 11:48 | -35.73319 | 147.80958 | 37503 ft | 469 kts | 59° |
| 2026-04-23 11:49 | -35.69379 | 147.87369 | 37509 ft | 469 kts | 59° |
| 2026-04-23 11:49 | -35.65438 | 147.93779 | 37526 ft | 469 kts | 59° |
| 2026-04-23 11:50 | -35.61496 | 148.00169 | 37517 ft | 469 kts | 59° |
| 2026-04-23 11:50 | -35.57546 | 148.06554 | 37519 ft | 469 kts | 59° |
| 2026-04-23 11:51 | -35.53596 | 148.12922 | 37514 ft | 469 kts | 59° |
| 2026-04-23 11:51 | -35.49648 | 148.19291 | 37527 ft | 469 kts | 58° |
| 2026-04-23 11:52 | -35.45688 | 148.25655 | 37545 ft | 469 kts | 58° |
| 2026-04-23 11:52 | -35.42398 | 148.30935 | 37528 ft | 468 kts | 58° |
| 2026-04-23 11:53 | -35.38447 | 148.37278 | 37534 ft | 468 kts | 58° |
| 2026-04-23 11:53 | -35.34489 | 148.43618 | 37533 ft | 469 kts | 58° |
| 2026-04-23 11:54 | -35.30518 | 148.49948 | 37550 ft | 469 kts | 58° |
| 2026-04-23 11:54 | -35.26542 | 148.56278 | 37538 ft | 469 kts | 58° |
| 2026-04-23 11:55 | -35.22577 | 148.62607 | 37535 ft | 468 kts | 58° |
| 2026-04-23 11:55 | -35.18603 | 148.68927 | 37532 ft | 469 kts | 58° |
| 2026-04-23 11:56 | -35.14618 | 148.75235 | 37522 ft | 469 kts | 58° |
| 2026-04-23 11:56 | -35.10631 | 148.81547 | 37538 ft | 469 kts | 57° |
| 2026-04-23 11:57 | -35.06639 | 148.87847 | 37549 ft | 469 kts | 57° |
| 2026-04-23 11:57 | -35.02648 | 148.94139 | 37540 ft | 469 kts | 57° |
| 2026-04-23 11:58 | -34.98653 | 149.00426 | 37539 ft | 469 kts | 57° |
| 2026-04-23 11:58 | -34.94678 | 149.06665 | 37434 ft | 467 kts | 57° |
| 2026-04-23 11:58 | -34.92689 | 149.09787 | 36924 ft | 466 kts | 57° |
| 2026-04-23 11:59 | -34.90676 | 149.12943 | 36364 ft | 465 kts | 57° |
| 2026-04-23 11:59 | -34.88719 | 149.16013 | 35818 ft | 465 kts | 57° |
| 2026-04-23 11:59 | -34.86744 | 149.19111 | 35407 ft | 461 kts | 57° |
| 2026-04-23 11:59 | -34.84782 | 149.22185 | 34996 ft | 457 kts | 57° |
| 2026-04-23 12:00 | -34.82836 | 149.25231 | 34581 ft | 453 kts | 57° |
| 2026-04-23 12:00 | -34.80903 | 149.28247 | 34119 ft | 450 kts | 56° |
| 2026-04-23 12:00 | -34.78984 | 149.31233 | 33652 ft | 446 kts | 56° |
| 2026-04-23 12:00 | -34.77082 | 149.34189 | 33191 ft | 442 kts | 56° |
| 2026-04-23 12:01 | -34.75200 | 149.37119 | 32713 ft | 437 kts | 56° |
| 2026-04-23 12:01 | -34.73505 | 149.40142 | 32220 ft | 429 kts | 65° |
| 2026-04-23 12:01 | -34.72119 | 149.43325 | 31735 ft | 424 kts | 66° |
| 2026-04-23 12:01 | -34.70752 | 149.46483 | 31261 ft | 420 kts | 66° |
| 2026-04-23 12:02 | -34.69390 | 149.49610 | 30797 ft | 417 kts | 65° |
| 2026-04-23 12:02 | -34.68037 | 149.52703 | 30300 ft | 413 kts | 65° |
| 2026-04-23 12:02 | -34.66693 | 149.55769 | 29766 ft | 409 kts | 65° |
| 2026-04-23 12:02 | -34.65361 | 149.58812 | 29252 ft | 406 kts | 65° |
| 2026-04-23 12:03 | -34.64040 | 149.61824 | 28784 ft | 402 kts | 64° |
| 2026-04-23 12:03 | -34.62735 | 149.64801 | 28356 ft | 397 kts | 64° |
| 2026-04-23 12:03 | -34.61444 | 149.67745 | 27899 ft | 393 kts | 64° |
| 2026-04-23 12:03 | -34.60164 | 149.70666 | 27429 ft | 391 kts | 64° |
| 2026-04-23 12:04 | -34.58890 | 149.73570 | 26991 ft | 388 kts | 64° |
| 2026-04-23 12:04 | -34.57622 | 149.76451 | 26553 ft | 386 kts | 64° |
| 2026-04-23 12:04 | -34.56363 | 149.79317 | 26117 ft | 383 kts | 64° |
| 2026-04-23 12:04 | -34.55115 | 149.82159 | 25668 ft | 381 kts | 64° |
| 2026-04-23 12:05 | -34.53874 | 149.84981 | 25245 ft | 378 kts | 64° |
| 2026-04-23 12:05 | -34.52638 | 149.87785 | 24815 ft | 376 kts | 64° |
| 2026-04-23 12:05 | -34.51824 | 149.89626 | 24541 ft | 374 kts | 63° |
| 2026-04-23 12:05 | -34.50190 | 149.93319 | 23974 ft | 370 kts | 63° |
| 2026-04-23 12:06 | -34.49386 | 149.95136 | 23635 ft | 368 kts | 64° |
| 2026-04-23 12:06 | -34.47776 | 149.98776 | 22951 ft | 365 kts | 64° |
| 2026-04-23 12:06 | -34.45397 | 150.04161 | 22016 ft | 360 kts | 64° |
| 2026-04-23 12:07 | -34.44217 | 150.06830 | 21569 ft | 358 kts | 64° |
| 2026-04-23 12:07 | -34.43042 | 150.09475 | 21131 ft | 356 kts | 64° |
| 2026-04-23 12:07 | -34.41886 | 150.12072 | 20700 ft | 354 kts | 64° |
| 2026-04-23 12:07 | -34.40721 | 150.14685 | 20264 ft | 352 kts | 64° |
| 2026-04-23 12:08 | -34.39561 | 150.17286 | 19841 ft | 350 kts | 64° |
| 2026-04-23 12:08 | -34.38410 | 150.19869 | 19425 ft | 348 kts | 64° |
| 2026-04-23 12:08 | -34.37266 | 150.22438 | 19015 ft | 346 kts | 64° |
| 2026-04-23 12:08 | -34.36129 | 150.24994 | 18580 ft | 344 kts | 64° |
| 2026-04-23 12:09 | -34.34999 | 150.27532 | 18136 ft | 341 kts | 64° |
| 2026-04-23 12:09 | -34.33878 | 150.30046 | 17705 ft | 338 kts | 64° |
| 2026-04-23 12:09 | -34.32764 | 150.32541 | 17266 ft | 336 kts | 64° |
| 2026-04-23 12:09 | -34.31657 | 150.35015 | 16852 ft | 333 kts | 64° |
| 2026-04-23 12:10 | -34.30558 | 150.37464 | 16450 ft | 330 kts | 64° |
| 2026-04-23 12:10 | -34.29469 | 150.39894 | 16060 ft | 327 kts | 64° |
| 2026-04-23 12:10 | -34.28387 | 150.42304 | 15659 ft | 324 kts | 64° |
| 2026-04-23 12:10 | -34.27316 | 150.44688 | 15274 ft | 322 kts | 64° |
| 2026-04-23 12:11 | -34.26256 | 150.47058 | 14896 ft | 319 kts | 64° |
| 2026-04-23 12:11 | -34.25207 | 150.49413 | 14542 ft | 316 kts | 65° |
| 2026-04-23 12:11 | -34.24175 | 150.51736 | 14170 ft | 313 kts | 65° |
| 2026-04-23 12:11 | -34.23148 | 150.54045 | 13744 ft | 310 kts | 65° |
| 2026-04-23 12:12 | -34.22126 | 150.56335 | 13320 ft | 309 kts | 64° |
| 2026-04-23 12:12 | -34.21120 | 150.58578 | 12925 ft | 307 kts | 64° |
| 2026-04-23 12:12 | -34.20107 | 150.60835 | 12521 ft | 305 kts | 64° |
| 2026-04-23 12:12 | -34.19100 | 150.63080 | 12130 ft | 303 kts | 64° |
| 2026-04-23 12:13 | -34.18097 | 150.65308 | 11720 ft | 301 kts | 64° |
| 2026-04-23 12:13 | -34.17096 | 150.67523 | 11351 ft | 300 kts | 64° |
| 2026-04-23 12:13 | -34.16102 | 150.69723 | 10977 ft | 298 kts | 64° |
| 2026-04-23 12:13 | -34.15114 | 150.71913 | 10600 ft | 296 kts | 64° |
| 2026-04-23 12:14 | -34.14133 | 150.74095 | 10214 ft | 294 kts | 64° |
| 2026-04-23 12:14 | -34.13173 | 150.76231 | 10032 ft | 285 kts | 64° |
| 2026-04-23 12:14 | -34.12235 | 150.78314 | 9731 ft | 280 kts | 64° |
| 2026-04-23 12:14 | -34.11307 | 150.80374 | 9376 ft | 278 kts | 64° |
| 2026-04-23 12:15 | -34.10383 | 150.82415 | 9017 ft | 277 kts | 63° |
| 2026-04-23 12:15 | -34.09464 | 150.84448 | 8666 ft | 275 kts | 63° |
| 2026-04-23 12:15 | -34.08555 | 150.86468 | 8320 ft | 273 kts | 63° |
| 2026-04-23 12:15 | -34.07652 | 150.88478 | 7966 ft | 272 kts | 63° |
| 2026-04-23 12:16 | -34.06752 | 150.90474 | 7631 ft | 270 kts | 63° |
| 2026-04-23 12:16 | -34.05856 | 150.92460 | 7296 ft | 268 kts | 63° |
| 2026-04-23 12:16 | -34.04965 | 150.94437 | 6963 ft | 267 kts | 63° |
| 2026-04-23 12:16 | -34.04092 | 150.96374 | 6625 ft | 265 kts | 63° |
| 2026-04-23 12:17 | -34.03217 | 150.98322 | 6267 ft | 264 kts | 63° |
| 2026-04-23 12:17 | -34.02309 | 151.00230 | 6024 ft | 260 kts | 54° |
| 2026-04-23 12:17 | -34.00897 | 151.01596 | 6012 ft | 267 kts | 25° |
| 2026-04-23 12:17 | -33.99071 | 151.01997 | 6015 ft | 272 kts | 358° |
| 2026-04-23 12:18 | -33.97179 | 151.01740 | 6010 ft | 273 kts | 358° |
| 2026-04-23 12:18 | -33.95278 | 151.01626 | 6013 ft | 273 kts | 1° |
| 2026-04-23 12:18 | -33.93386 | 151.01677 | 5860 ft | 271 kts | 5° |
| 2026-04-23 12:18 | -33.91509 | 151.01783 | 5519 ft | 269 kts | 5° |
| 2026-04-23 12:19 | -33.89649 | 151.01894 | 5188 ft | 267 kts | 5° |
| 2026-04-23 12:19 | -33.87797 | 151.02004 | 4832 ft | 266 kts | 5° |
| 2026-04-23 12:19 | -33.85955 | 151.02114 | 4468 ft | 265 kts | 5° |
| 2026-04-23 12:19 | -33.84114 | 151.02223 | 4103 ft | 265 kts | 5° |
| 2026-04-23 12:20 | -33.82285 | 151.02330 | 3858 ft | 259 kts | 5° |
| 2026-04-23 12:20 | -33.80519 | 151.02183 | 3737 ft | 251 kts | 352° |
| 2026-04-23 12:20 | -33.78841 | 151.01782 | 3592 ft | 241 kts | 350° |
| 2026-04-23 12:20 | -33.77207 | 151.01443 | 3348 ft | 236 kts | 354° |
| 2026-04-23 12:21 | -33.75588 | 151.01347 | 3059 ft | 229 kts | 15° |
| 2026-04-23 12:21 | -33.74217 | 151.02196 | 3016 ft | 223 kts | 49° |
| 2026-04-23 12:21 | -33.73436 | 151.03772 | 3020 ft | 220 kts | 74° |
| 2026-04-23 12:21 | -33.73037 | 151.05554 | 3019 ft | 222 kts | 79° |
| 2026-04-23 12:22 | -33.72699 | 151.07361 | 3016 ft | 222 kts | 79° |
| 2026-04-23 12:22 | -33.72481 | 151.09183 | 3009 ft | 220 kts | 97° |
| 2026-04-23 12:22 | -33.73015 | 151.10870 | 3015 ft | 219 kts | 126° |
| 2026-04-23 12:22 | -33.73983 | 151.12287 | 3020 ft | 218 kts | 131° |
| 2026-04-23 12:23 | -33.74959 | 151.13581 | 3010 ft | 200 kts | 132° |
| 2026-04-23 12:23 | -33.75878 | 151.14700 | 3017 ft | 178 kts | 143° |
| 2026-04-23 12:23 | -33.77041 | 151.14942 | 3007 ft | 174 kts | 193° |
| 2026-04-23 12:23 | -33.78163 | 151.14513 | 3026 ft | 161 kts | 184° |
| 2026-04-23 12:24 | -33.79231 | 151.14721 | 3021 ft | 157 kts | 163° |
| 2026-04-23 12:24 | -33.80271 | 151.15012 | 3029 ft | 149 kts | 164° |
| 2026-04-23 12:24 | -33.81242 | 151.15270 | 3011 ft | 142 kts | 165° |
| 2026-04-23 12:24 | -33.82219 | 151.15527 | 2910 ft | 146 kts | 165° |
| 2026-04-23 12:25 | -33.83204 | 151.15784 | 2544 ft | 145 kts | 165° |
| 2026-04-23 12:25 | -33.84214 | 151.16046 | 2238 ft | 151 kts | 165° |
| 2026-04-23 12:25 | -33.85249 | 151.16315 | 2041 ft | 153 kts | 166° |
| 2026-04-23 12:25 | -33.86293 | 151.16585 | 1818 ft | 154 kts | 166° |
| 2026-04-23 12:26 | -33.87337 | 151.16855 | 1621 ft | 154 kts | 166° |
| 2026-04-23 12:26 | -33.88378 | 151.17125 | 1410 ft | 153 kts | 166° |
| 2026-04-23 12:26 | -33.89416 | 151.17394 | 1194 ft | 153 kts | 166° |
| 2026-04-23 12:26 | -33.90428 | 151.17655 | 1031 ft | 143 kts | 166° |
| 2026-04-23 12:27 | -33.91388 | 151.17904 | 829 ft | 139 kts | 165° |
| 2026-04-23 12:27 | -33.92325 | 151.18147 | 645 ft | 136 kts | 166° |
| 2026-04-23 12:27 | -33.93251 | 151.18388 | 462 ft | 135 kts | 166° |
| 2026-04-23 12:27 | -33.94175 | 151.18627 | 274 ft | 136 kts | 166° |
| 2026-04-23 12:28 | -33.95094 | 151.18869 | 99 ft | 135 kts | 166° |
| 2026-04-23 12:28 | -33.95965 | 151.19094 | 30 ft | 115 kts | 168° |
| 2026-04-23 12:28 | -33.96584 | 151.19254 | 20 ft | 62 kts | 168° |
| 2026-04-23 12:28 | -33.96933 | 151.19294 | 21 ft | 45 kts | 187° |
| 2026-04-23 12:29 | -33.97115 | 151.19236 | 21 ft | 15 kts | 221° |
| 2026-04-23 12:29 | -33.97089 | 151.19137 | 21 ft | 15 kts | 342° |
| 2026-04-23 12:29 | -33.96974 | 151.19108 | 20 ft | 18 kts | 348° |
| 2026-04-23 12:29 | -33.96844 | 151.19074 | 19 ft | 20 kts | 349° |
| 2026-04-23 12:30 | -33.96704 | 151.19077 | 19 ft | 21 kts | 359° |
| 2026-04-23 12:30 | -33.96559 | 151.19043 | 19 ft | 22 kts | 348° |
| 2026-04-23 12:30 | -33.96410 | 151.19005 | 22 ft | 21 kts | 348° |
| 2026-04-23 12:30 | -33.96272 | 151.18969 | 27 ft | 20 kts | 348° |
| 2026-04-23 12:31 | -33.96128 | 151.18932 | 28 ft | 22 kts | 347° |
| 2026-04-23 12:31 | -33.95976 | 151.18893 | 27 ft | 23 kts | 348° |